sensor_id;sensor_type;location;lat;lon;timestamp;P1;durP1;ratioP1;P2;durP2;ratioP2
74967;SDS011;63523;51.880;12.630;2024-02-28T00:02:16;16.23;;;4.75;;
74967;SDS011;63523;51.880;12.630;2024-02-28T00:04:41;16.57;;;4.70;;
74967;SDS011;63523;51.880;12.630;2024-02-28T00:07:07;14.30;;;4.40;;
74967;SDS011;63523;51.880;12.630;2024-02-28T00:09:32;15.77;;;4.27;;
74967;SDS011;63523;51.880;12.630;2024-02-28T00:11:57;15.23;;;4.13;;
74967;SDS011;63523;51.880;12.630;2024-02-28T00:14:22;15.65;;;4.80;;
74967;SDS011;63523;51.880;12.630;2024-02-28T00:16:48;13.13;;;4.00;;
74967;SDS011;63523;51.880;12.630;2024-02-28T00:19:13;16.50;;;4.73;;
74967;SDS011;63523;51.880;12.630;2024-02-28T00:21:39;15.00;;;4.63;;
74967;SDS011;63523;51.880;12.630;2024-02-28T00:24:05;13.60;;;4.10;;
74967;SDS011;63523;51.880;12.630;2024-02-28T00:26:31;14.57;;;4.82;;
74967;SDS011;63523;51.880;12.630;2024-02-28T00:28:56;16.30;;;4.60;;
74967;SDS011;63523;51.880;12.630;2024-02-28T00:31:22;14.27;;;4.43;;
74967;SDS011;63523;51.880;12.630;2024-02-28T00:33:47;13.97;;;4.73;;
74967;SDS011;63523;51.880;12.630;2024-02-28T00:36:13;12.23;;;3.57;;
74967;SDS011;63523;51.880;12.630;2024-02-28T00:38:38;17.70;;;5.05;;
74967;SDS011;63523;51.880;12.630;2024-02-28T00:41:03;17.07;;;4.77;;
74967;SDS011;63523;51.880;12.630;2024-02-28T00:43:29;15.83;;;4.80;;
74967;SDS011;63523;51.880;12.630;2024-02-28T00:45:54;14.10;;;4.57;;
74967;SDS011;63523;51.880;12.630;2024-02-28T00:48:21;16.17;;;5.33;;
74967;SDS011;63523;51.880;12.630;2024-02-28T00:50:47;12.77;;;4.30;;
74967;SDS011;63523;51.880;12.630;2024-02-28T00:53:12;14.70;;;5.27;;
74967;SDS011;63523;51.880;12.630;2024-02-28T00:55:37;14.53;;;4.37;;
74967;SDS011;63523;51.880;12.630;2024-02-28T00:58:03;13.13;;;4.10;;
74967;SDS011;63523;51.880;12.630;2024-02-28T01:00:28;14.00;;;4.63;;
74967;SDS011;63523;51.880;12.630;2024-02-28T01:02:53;13.80;;;4.73;;
74967;SDS011;63523;51.880;12.630;2024-02-28T01:05:19;15.00;;;4.73;;
74967;SDS011;63523;51.880;12.630;2024-02-28T01:07:44;13.70;;;4.70;;
74967;SDS011;63523;51.880;12.630;2024-02-28T01:10:09;14.67;;;4.27;;
74967;SDS011;63523;51.880;12.630;2024-02-28T01:12:35;15.33;;;4.60;;
74967;SDS011;63523;51.880;12.630;2024-02-28T01:15:00;14.90;;;4.90;;
74967;SDS011;63523;51.880;12.630;2024-02-28T01:17:25;13.97;;;4.47;;
74967;SDS011;63523;51.880;12.630;2024-02-28T01:19:50;16.73;;;5.67;;
74967;SDS011;63523;51.880;12.630;2024-02-28T01:22:16;18.57;;;5.77;;
74967;SDS011;63523;51.880;12.630;2024-02-28T01:24:41;16.05;;;5.28;;
74967;SDS011;63523;51.880;12.630;2024-02-28T01:27:06;18.20;;;4.90;;
74967;SDS011;63523;51.880;12.630;2024-02-28T01:29:32;13.73;;;4.70;;
74967;SDS011;63523;51.880;12.630;2024-02-28T01:31:57;15.93;;;5.30;;
74967;SDS011;63523;51.880;12.630;2024-02-28T01:34:22;16.73;;;5.37;;
74967;SDS011;63523;51.880;12.630;2024-02-28T01:36:48;16.27;;;5.20;;
74967;SDS011;63523;51.880;12.630;2024-02-28T01:39:13;14.03;;;4.77;;
74967;SDS011;63523;51.880;12.630;2024-02-28T01:41:39;14.23;;;4.60;;
74967;SDS011;63523;51.880;12.630;2024-02-28T01:44:04;15.17;;;5.17;;
74967;SDS011;63523;51.880;12.630;2024-02-28T01:46:29;14.70;;;5.10;;
74967;SDS011;63523;51.880;12.630;2024-02-28T01:48:56;13.93;;;5.17;;
74967;SDS011;63523;51.880;12.630;2024-02-28T01:51:25;13.88;;;4.93;;
74967;SDS011;63523;51.880;12.630;2024-02-28T01:53:52;15.73;;;5.25;;
74967;SDS011;63523;51.880;12.630;2024-02-28T01:56:18;15.63;;;5.13;;
74967;SDS011;63523;51.880;12.630;2024-02-28T01:58:45;16.10;;;5.25;;
74967;SDS011;63523;51.880;12.630;2024-02-28T02:01:13;13.93;;;4.80;;
74967;SDS011;63523;51.880;12.630;2024-02-28T02:03:39;16.60;;;5.10;;
74967;SDS011;63523;51.880;12.630;2024-02-28T02:06:04;17.07;;;5.33;;
74967;SDS011;63523;51.880;12.630;2024-02-28T02:08:30;15.60;;;5.17;;
74967;SDS011;63523;51.880;12.630;2024-02-28T02:10:56;16.07;;;5.83;;
74967;SDS011;63523;51.880;12.630;2024-02-28T02:13:21;16.20;;;6.00;;
74967;SDS011;63523;51.880;12.630;2024-02-28T02:15:47;15.73;;;5.60;;
74967;SDS011;63523;51.880;12.630;2024-02-28T02:18:12;14.93;;;4.67;;
74967;SDS011;63523;51.880;12.630;2024-02-28T02:20:38;14.40;;;4.83;;
74967;SDS011;63523;51.880;12.630;2024-02-28T02:23:08;12.43;;;4.70;;
74967;SDS011;63523;51.880;12.630;2024-02-28T02:25:33;14.67;;;5.17;;
74967;SDS011;63523;51.880;12.630;2024-02-28T02:27:59;12.50;;;4.97;;
74967;SDS011;63523;51.880;12.630;2024-02-28T02:30:24;16.50;;;5.37;;
74967;SDS011;63523;51.880;12.630;2024-02-28T02:32:50;13.20;;;5.07;;
74967;SDS011;63523;51.880;12.630;2024-02-28T02:35:15;14.53;;;4.90;;
74967;SDS011;63523;51.880;12.630;2024-02-28T02:37:43;13.87;;;5.20;;
74967;SDS011;63523;51.880;12.630;2024-02-28T02:40:11;12.32;;;4.35;;
74967;SDS011;63523;51.880;12.630;2024-02-28T02:42:37;13.02;;;4.57;;
74967;SDS011;63523;51.880;12.630;2024-02-28T02:45:02;13.60;;;4.97;;
74967;SDS011;63523;51.880;12.630;2024-02-28T02:47:28;14.53;;;5.33;;
74967;SDS011;63523;51.880;12.630;2024-02-28T02:49:54;15.00;;;5.03;;
74967;SDS011;63523;51.880;12.630;2024-02-28T02:52:19;14.67;;;4.73;;
74967;SDS011;63523;51.880;12.630;2024-02-28T02:54:44;13.70;;;4.73;;
74967;SDS011;63523;51.880;12.630;2024-02-28T02:57:09;11.37;;;4.50;;
74967;SDS011;63523;51.880;12.630;2024-02-28T02:59:35;13.90;;;4.27;;
74967;SDS011;63523;51.880;12.630;2024-02-28T03:02:01;10.98;;;3.90;;
74967;SDS011;63523;51.880;12.630;2024-02-28T03:04:26;10.93;;;3.70;;
74967;SDS011;63523;51.880;12.630;2024-02-28T03:06:51;9.07;;;3.07;;
74967;SDS011;63523;51.880;12.630;2024-02-28T03:09:16;11.40;;;3.53;;
74967;SDS011;63523;51.880;12.630;2024-02-28T03:11:41;9.17;;;2.70;;
74967;SDS011;63523;51.880;12.630;2024-02-28T03:14:07;12.47;;;3.63;;
74967;SDS011;63523;51.880;12.630;2024-02-28T03:16:32;12.57;;;3.83;;
74967;SDS011;63523;51.880;12.630;2024-02-28T03:18:57;11.20;;;3.50;;
74967;SDS011;63523;51.880;12.630;2024-02-28T03:21:23;9.67;;;3.37;;
74967;SDS011;63523;51.880;12.630;2024-02-28T03:23:48;12.67;;;3.50;;
74967;SDS011;63523;51.880;12.630;2024-02-28T03:26:13;12.10;;;3.87;;
74967;SDS011;63523;51.880;12.630;2024-02-28T03:28:38;13.10;;;4.23;;
74967;SDS011;63523;51.880;12.630;2024-02-28T03:31:03;12.73;;;4.40;;
74967;SDS011;63523;51.880;12.630;2024-02-28T03:33:29;14.87;;;4.53;;
74967;SDS011;63523;51.880;12.630;2024-02-28T03:35:57;12.23;;;4.20;;
74967;SDS011;63523;51.880;12.630;2024-02-28T03:38:22;13.47;;;4.03;;
74967;SDS011;63523;51.880;12.630;2024-02-28T03:40:47;13.83;;;4.53;;
74967;SDS011;63523;51.880;12.630;2024-02-28T03:43:12;12.90;;;4.13;;
74967;SDS011;63523;51.880;12.630;2024-02-28T03:45:38;16.33;;;4.78;;
74967;SDS011;63523;51.880;12.630;2024-02-28T03:48:04;14.53;;;4.90;;
74967;SDS011;63523;51.880;12.630;2024-02-28T03:50:29;12.73;;;4.63;;
74967;SDS011;63523;51.880;12.630;2024-02-28T03:52:54;11.27;;;3.90;;
74967;SDS011;63523;51.880;12.630;2024-02-28T03:55:20;14.03;;;4.57;;
74967;SDS011;63523;51.880;12.630;2024-02-28T03:57:48;13.13;;;4.20;;
74967;SDS011;63523;51.880;12.630;2024-02-28T04:00:16;14.43;;;4.70;;
74967;SDS011;63523;51.880;12.630;2024-02-28T04:02:41;17.07;;;4.87;;
74967;SDS011;63523;51.880;12.630;2024-02-28T04:05:07;15.00;;;5.03;;
74967;SDS011;63523;51.880;12.630;2024-02-28T04:07:32;16.97;;;5.00;;
74967;SDS011;63523;51.880;12.630;2024-02-28T04:09:58;14.23;;;5.28;;
74967;SDS011;63523;51.880;12.630;2024-02-28T04:12:23;16.33;;;5.33;;
74967;SDS011;63523;51.880;12.630;2024-02-28T04:14:49;17.00;;;5.50;;
74967;SDS011;63523;51.880;12.630;2024-02-28T04:17:14;15.33;;;4.77;;
74967;SDS011;63523;51.880;12.630;2024-02-28T04:19:39;16.67;;;5.23;;
74967;SDS011;63523;51.880;12.630;2024-02-28T04:22:04;14.20;;;4.30;;
74967;SDS011;63523;51.880;12.630;2024-02-28T04:24:30;14.97;;;5.07;;
74967;SDS011;63523;51.880;12.630;2024-02-28T04:26:55;15.57;;;4.83;;
74967;SDS011;63523;51.880;12.630;2024-02-28T04:29:23;15.60;;;4.88;;
74967;SDS011;63523;51.880;12.630;2024-02-28T04:31:48;16.13;;;4.97;;
74967;SDS011;63523;51.880;12.630;2024-02-28T04:34:14;19.03;;;5.33;;
74967;SDS011;63523;51.880;12.630;2024-02-28T04:36:39;15.13;;;5.07;;
74967;SDS011;63523;51.880;12.630;2024-02-28T04:39:04;17.87;;;5.23;;
74967;SDS011;63523;51.880;12.630;2024-02-28T04:41:32;19.53;;;5.13;;
74967;SDS011;63523;51.880;12.630;2024-02-28T04:43:58;17.52;;;5.57;;
74967;SDS011;63523;51.880;12.630;2024-02-28T04:46:23;16.67;;;5.53;;
74967;SDS011;63523;51.880;12.630;2024-02-28T04:48:48;17.67;;;6.27;;
74967;SDS011;63523;51.880;12.630;2024-02-28T04:51:16;16.17;;;4.80;;
74967;SDS011;63523;51.880;12.630;2024-02-28T04:53:44;17.70;;;5.80;;
74967;SDS011;63523;51.880;12.630;2024-02-28T04:56:10;17.23;;;5.13;;
74967;SDS011;63523;51.880;12.630;2024-02-28T04:58:35;19.10;;;5.87;;
74967;SDS011;63523;51.880;12.630;2024-02-28T05:01:01;19.73;;;6.40;;
74967;SDS011;63523;51.880;12.630;2024-02-28T05:03:26;19.40;;;5.83;;
74967;SDS011;63523;51.880;12.630;2024-02-28T05:05:52;19.87;;;5.83;;
74967;SDS011;63523;51.880;12.630;2024-02-28T05:08:19;18.27;;;6.10;;
74967;SDS011;63523;51.880;12.630;2024-02-28T05:10:44;19.90;;;5.53;;
74967;SDS011;63523;51.880;12.630;2024-02-28T05:13:10;15.77;;;5.83;;
74967;SDS011;63523;51.880;12.630;2024-02-28T05:15:35;18.50;;;6.03;;
74967;SDS011;63523;51.880;12.630;2024-02-28T05:18:00;19.80;;;6.53;;
74967;SDS011;63523;51.880;12.630;2024-02-28T05:20:26;18.25;;;6.32;;
74967;SDS011;63523;51.880;12.630;2024-02-28T05:22:51;18.00;;;6.27;;
74967;SDS011;63523;51.880;12.630;2024-02-28T05:25:16;15.17;;;5.47;;
74967;SDS011;63523;51.880;12.630;2024-02-28T05:27:42;18.90;;;6.23;;
74967;SDS011;63523;51.880;12.630;2024-02-28T05:30:07;17.30;;;5.57;;
74967;SDS011;63523;51.880;12.630;2024-02-28T05:32:33;17.53;;;6.03;;
74967;SDS011;63523;51.880;12.630;2024-02-28T05:34:58;19.43;;;6.00;;
74967;SDS011;63523;51.880;12.630;2024-02-28T05:37:24;21.55;;;6.40;;
74967;SDS011;63523;51.880;12.630;2024-02-28T05:39:50;18.07;;;5.73;;
74967;SDS011;63523;51.880;12.630;2024-02-28T05:42:15;15.97;;;6.10;;
74967;SDS011;63523;51.880;12.630;2024-02-28T05:44:46;17.85;;;6.35;;
74967;SDS011;63523;51.880;12.630;2024-02-28T05:47:12;18.30;;;6.43;;
74967;SDS011;63523;51.880;12.630;2024-02-28T05:49:38;18.50;;;6.17;;
74967;SDS011;63523;51.880;12.630;2024-02-28T05:52:03;18.60;;;6.28;;
74967;SDS011;63523;51.880;12.630;2024-02-28T05:54:29;18.58;;;6.32;;
74967;SDS011;63523;51.880;12.630;2024-02-28T05:56:54;18.63;;;5.73;;
74967;SDS011;63523;51.880;12.630;2024-02-28T05:59:20;15.60;;;5.73;;
74967;SDS011;63523;51.880;12.630;2024-02-28T06:01:45;15.63;;;5.90;;
74967;SDS011;63523;51.880;12.630;2024-02-28T06:04:10;18.77;;;6.67;;
74967;SDS011;63523;51.880;12.630;2024-02-28T06:06:36;16.33;;;5.60;;
74967;SDS011;63523;51.880;12.630;2024-02-28T06:09:01;15.90;;;5.67;;
74967;SDS011;63523;51.880;12.630;2024-02-28T06:11:27;19.00;;;6.60;;
74967;SDS011;63523;51.880;12.630;2024-02-28T06:13:52;19.10;;;6.93;;
74967;SDS011;63523;51.880;12.630;2024-02-28T06:16:18;18.40;;;6.50;;
74967;SDS011;63523;51.880;12.630;2024-02-28T06:18:43;18.23;;;5.78;;
74967;SDS011;63523;51.880;12.630;2024-02-28T06:21:09;15.70;;;5.70;;
74967;SDS011;63523;51.880;12.630;2024-02-28T06:23:34;16.90;;;6.30;;
74967;SDS011;63523;51.880;12.630;2024-02-28T06:25:59;17.83;;;6.43;;
74967;SDS011;63523;51.880;12.630;2024-02-28T06:28:25;16.88;;;6.07;;
74967;SDS011;63523;51.880;12.630;2024-02-28T06:30:51;16.07;;;5.27;;
74967;SDS011;63523;51.880;12.630;2024-02-28T06:33:17;15.77;;;6.35;;
74967;SDS011;63523;51.880;12.630;2024-02-28T06:35:42;16.40;;;5.80;;
74967;SDS011;63523;51.880;12.630;2024-02-28T06:38:07;15.93;;;5.77;;
74967;SDS011;63523;51.880;12.630;2024-02-28T06:40:33;18.30;;;6.00;;
74967;SDS011;63523;51.880;12.630;2024-02-28T06:42:59;14.27;;;5.32;;
74967;SDS011;63523;51.880;12.630;2024-02-28T06:45:25;14.60;;;5.13;;
74967;SDS011;63523;51.880;12.630;2024-02-28T06:47:50;19.33;;;6.00;;
74967;SDS011;63523;51.880;12.630;2024-02-28T06:50:16;17.67;;;6.10;;
74967;SDS011;63523;51.880;12.630;2024-02-28T06:52:41;16.80;;;5.47;;
74967;SDS011;63523;51.880;12.630;2024-02-28T06:55:07;17.70;;;6.28;;
74967;SDS011;63523;51.880;12.630;2024-02-28T06:57:36;16.67;;;5.70;;
74967;SDS011;63523;51.880;12.630;2024-02-28T07:00:02;15.00;;;5.10;;
74967;SDS011;63523;51.880;12.630;2024-02-28T07:02:28;16.13;;;6.00;;
74967;SDS011;63523;51.880;12.630;2024-02-28T07:04:53;14.70;;;5.00;;
74967;SDS011;63523;51.880;12.630;2024-02-28T07:07:18;16.20;;;6.30;;
74967;SDS011;63523;51.880;12.630;2024-02-28T07:09:44;14.50;;;5.22;;
74967;SDS011;63523;51.880;12.630;2024-02-28T07:12:09;15.83;;;5.20;;
74967;SDS011;63523;51.880;12.630;2024-02-28T07:14:34;16.63;;;5.30;;
74967;SDS011;63523;51.880;12.630;2024-02-28T07:17:00;16.67;;;4.93;;
74967;SDS011;63523;51.880;12.630;2024-02-28T07:19:25;15.93;;;5.93;;
74967;SDS011;63523;51.880;12.630;2024-02-28T07:21:50;14.47;;;5.50;;
74967;SDS011;63523;51.880;12.630;2024-02-28T07:24:15;16.20;;;5.50;;
74967;SDS011;63523;51.880;12.630;2024-02-28T07:26:41;14.63;;;5.30;;
74967;SDS011;63523;51.880;12.630;2024-02-28T07:29:06;14.60;;;4.57;;
74967;SDS011;63523;51.880;12.630;2024-02-28T07:31:32;16.10;;;5.63;;
74967;SDS011;63523;51.880;12.630;2024-02-28T07:33:57;13.77;;;4.87;;
74967;SDS011;63523;51.880;12.630;2024-02-28T07:36:22;15.77;;;5.63;;
74967;SDS011;63523;51.880;12.630;2024-02-28T07:38:48;12.50;;;4.53;;
74967;SDS011;63523;51.880;12.630;2024-02-28T07:41:13;15.03;;;5.00;;
74967;SDS011;63523;51.880;12.630;2024-02-28T07:43:41;12.13;;;4.07;;
74967;SDS011;63523;51.880;12.630;2024-02-28T07:46:08;14.63;;;5.03;;
74967;SDS011;63523;51.880;12.630;2024-02-28T07:48:34;13.23;;;4.93;;
74967;SDS011;63523;51.880;12.630;2024-02-28T07:51:00;13.70;;;4.43;;
74967;SDS011;63523;51.880;12.630;2024-02-28T07:53:26;13.97;;;5.20;;
74967;SDS011;63523;51.880;12.630;2024-02-28T07:55:51;15.23;;;5.70;;
74967;SDS011;63523;51.880;12.630;2024-02-28T07:58:16;14.57;;;5.37;;
74967;SDS011;63523;51.880;12.630;2024-02-28T08:00:42;16.57;;;5.43;;
74967;SDS011;63523;51.880;12.630;2024-02-28T08:03:08;13.27;;;5.37;;
74967;SDS011;63523;51.880;12.630;2024-02-28T08:05:34;14.20;;;4.95;;
74967;SDS011;63523;51.880;12.630;2024-02-28T08:08:04;16.92;;;5.57;;
74967;SDS011;63523;51.880;12.630;2024-02-28T08:10:32;15.37;;;5.27;;
74967;SDS011;63523;51.880;12.630;2024-02-28T08:12:59;13.80;;;4.93;;
74967;SDS011;63523;51.880;12.630;2024-02-28T08:15:24;11.83;;;4.50;;
74967;SDS011;63523;51.880;12.630;2024-02-28T08:17:49;14.90;;;5.23;;
74967;SDS011;63523;51.880;12.630;2024-02-28T08:20:14;13.13;;;4.80;;
74967;SDS011;63523;51.880;12.630;2024-02-28T08:22:40;12.90;;;4.83;;
74967;SDS011;63523;51.880;12.630;2024-02-28T08:25:05;15.25;;;5.28;;
74967;SDS011;63523;51.880;12.630;2024-02-28T08:27:31;14.50;;;4.63;;
74967;SDS011;63523;51.880;12.630;2024-02-28T08:29:59;15.35;;;5.25;;
74967;SDS011;63523;51.880;12.630;2024-02-28T08:32:24;14.93;;;5.63;;
74967;SDS011;63523;51.880;12.630;2024-02-28T08:34:49;14.60;;;5.20;;
74967;SDS011;63523;51.880;12.630;2024-02-28T08:37:15;13.93;;;4.93;;
74967;SDS011;63523;51.880;12.630;2024-02-28T08:39:40;14.82;;;4.88;;
74967;SDS011;63523;51.880;12.630;2024-02-28T08:42:06;13.10;;;4.80;;
74967;SDS011;63523;51.880;12.630;2024-02-28T08:44:31;15.43;;;5.43;;
74967;SDS011;63523;51.880;12.630;2024-02-28T08:46:56;14.07;;;5.43;;
74967;SDS011;63523;51.880;12.630;2024-02-28T08:49:22;15.47;;;5.17;;
74967;SDS011;63523;51.880;12.630;2024-02-28T08:51:47;13.43;;;4.43;;
74967;SDS011;63523;51.880;12.630;2024-02-28T08:54:13;15.15;;;5.30;;
74967;SDS011;63523;51.880;12.630;2024-02-28T08:56:38;14.07;;;5.30;;
74967;SDS011;63523;51.880;12.630;2024-02-28T08:59:03;13.57;;;5.10;;
74967;SDS011;63523;51.880;12.630;2024-02-28T09:01:29;12.90;;;5.30;;
74967;SDS011;63523;51.880;12.630;2024-02-28T09:03:54;15.00;;;4.90;;
74967;SDS011;63523;51.880;12.630;2024-02-28T09:06:19;14.97;;;4.80;;
74967;SDS011;63523;51.880;12.630;2024-02-28T09:08:44;15.53;;;5.50;;
74967;SDS011;63523;51.880;12.630;2024-02-28T09:11:09;13.97;;;5.40;;
74967;SDS011;63523;51.880;12.630;2024-02-28T09:13:35;12.47;;;4.93;;
74967;SDS011;63523;51.880;12.630;2024-02-28T09:16:03;12.65;;;4.72;;
74967;SDS011;63523;51.880;12.630;2024-02-28T09:18:28;16.47;;;5.50;;
74967;SDS011;63523;51.880;12.630;2024-02-28T09:20:54;13.33;;;5.13;;
74967;SDS011;63523;51.880;12.630;2024-02-28T09:23:19;14.80;;;5.13;;
74967;SDS011;63523;51.880;12.630;2024-02-28T09:25:44;12.17;;;4.70;;
74967;SDS011;63523;51.880;12.630;2024-02-28T09:28:10;14.40;;;5.20;;
74967;SDS011;63523;51.880;12.630;2024-02-28T09:30:37;15.03;;;5.70;;
74967;SDS011;63523;51.880;12.630;2024-02-28T09:33:03;13.43;;;4.70;;
74967;SDS011;63523;51.880;12.630;2024-02-28T09:35:28;14.57;;;5.03;;
74967;SDS011;63523;51.880;12.630;2024-02-28T09:37:54;13.83;;;4.90;;
74967;SDS011;63523;51.880;12.630;2024-02-28T09:40:19;15.93;;;5.10;;
74967;SDS011;63523;51.880;12.630;2024-02-28T09:42:46;15.43;;;5.97;;
74967;SDS011;63523;51.880;12.630;2024-02-28T09:45:17;13.60;;;5.03;;
74967;SDS011;63523;51.880;12.630;2024-02-28T09:47:45;15.83;;;5.60;;
74967;SDS011;63523;51.880;12.630;2024-02-28T09:50:10;13.70;;;5.63;;
74967;SDS011;63523;51.880;12.630;2024-02-28T09:52:37;13.23;;;5.60;;
74967;SDS011;63523;51.880;12.630;2024-02-28T09:55:02;15.90;;;5.65;;
74967;SDS011;63523;51.880;12.630;2024-02-28T09:57:28;13.87;;;5.53;;
74967;SDS011;63523;51.880;12.630;2024-02-28T09:59:58;14.75;;;5.47;;
74967;SDS011;63523;51.880;12.630;2024-02-28T10:02:25;18.52;;;6.22;;
74967;SDS011;63523;51.880;12.630;2024-02-28T10:04:53;14.23;;;5.33;;
74967;SDS011;63523;51.880;12.630;2024-02-28T10:07:20;14.90;;;5.32;;
74967;SDS011;63523;51.880;12.630;2024-02-28T10:09:46;15.88;;;5.95;;
74967;SDS011;63523;51.880;12.630;2024-02-28T10:12:12;14.67;;;5.50;;
74967;SDS011;63523;51.880;12.630;2024-02-28T10:14:37;14.30;;;5.03;;
74967;SDS011;63523;51.880;12.630;2024-02-28T10:17:03;14.32;;;5.35;;
74967;SDS011;63523;51.880;12.630;2024-02-28T10:19:29;13.75;;;5.40;;
74967;SDS011;63523;51.880;12.630;2024-02-28T10:21:55;14.70;;;4.93;;
74967;SDS011;63523;51.880;12.630;2024-02-28T10:24:20;11.47;;;4.43;;
74967;SDS011;63523;51.880;12.630;2024-02-28T10:26:48;14.07;;;5.05;;
74967;SDS011;63523;51.880;12.630;2024-02-28T10:29:20;13.32;;;5.20;;
74967;SDS011;63523;51.880;12.630;2024-02-28T10:31:49;14.25;;;5.45;;
74967;SDS011;63523;51.880;12.630;2024-02-28T10:34:18;13.77;;;5.00;;
74967;SDS011;63523;51.880;12.630;2024-02-28T10:36:43;12.40;;;4.63;;
74967;SDS011;63523;51.880;12.630;2024-02-28T10:39:10;14.27;;;4.88;;
74967;SDS011;63523;51.880;12.630;2024-02-28T10:41:37;13.90;;;5.00;;
74967;SDS011;63523;51.880;12.630;2024-02-28T10:44:03;12.85;;;4.78;;
74967;SDS011;63523;51.880;12.630;2024-02-28T10:46:29;13.27;;;5.20;;
74967;SDS011;63523;51.880;12.630;2024-02-28T10:48:55;13.52;;;5.03;;
74967;SDS011;63523;51.880;12.630;2024-02-28T10:51:22;14.20;;;5.07;;
74967;SDS011;63523;51.880;12.630;2024-02-28T10:53:50;12.07;;;5.15;;
74967;SDS011;63523;51.880;12.630;2024-02-28T10:56:34;12.43;;;4.80;;
74967;SDS011;63523;51.880;12.630;2024-02-28T10:59:00;11.90;;;4.80;;
74967;SDS011;63523;51.880;12.630;2024-02-28T11:01:26;12.88;;;5.00;;
74967;SDS011;63523;51.880;12.630;2024-02-28T11:03:52;13.35;;;5.30;;
74967;SDS011;63523;51.880;12.630;2024-02-28T11:06:19;12.90;;;4.88;;
74967;SDS011;63523;51.880;12.630;2024-02-28T11:08:46;12.57;;;5.13;;
74967;SDS011;63523;51.880;12.630;2024-02-28T11:11:18;13.38;;;5.32;;
74967;SDS011;63523;51.880;12.630;2024-02-28T11:13:53;13.35;;;5.65;;
74967;SDS011;63523;51.880;12.630;2024-02-28T11:16:25;11.85;;;5.40;;
74967;SDS011;63523;51.880;12.630;2024-02-28T11:18:52;11.60;;;4.57;;
74967;SDS011;63523;51.880;12.630;2024-02-28T11:21:18;12.77;;;5.20;;
74967;SDS011;63523;51.880;12.630;2024-02-28T11:23:46;12.17;;;4.57;;
74967;SDS011;63523;51.880;12.630;2024-02-28T11:26:13;13.27;;;4.77;;
74967;SDS011;63523;51.880;12.630;2024-02-28T11:28:38;12.15;;;4.60;;
74967;SDS011;63523;51.880;12.630;2024-02-28T11:31:04;12.45;;;4.65;;
74967;SDS011;63523;51.880;12.630;2024-02-28T11:33:30;12.33;;;4.97;;
74967;SDS011;63523;51.880;12.630;2024-02-28T11:35:56;11.50;;;4.77;;
74967;SDS011;63523;51.880;12.630;2024-02-28T11:38:24;11.18;;;4.03;;
74967;SDS011;63523;51.880;12.630;2024-02-28T11:40:49;12.20;;;4.20;;
74967;SDS011;63523;51.880;12.630;2024-02-28T11:43:15;10.27;;;3.93;;
74967;SDS011;63523;51.880;12.630;2024-02-28T11:45:40;9.80;;;3.77;;
74967;SDS011;63523;51.880;12.630;2024-02-28T11:48:08;10.02;;;3.80;;
74967;SDS011;63523;51.880;12.630;2024-02-28T11:50:33;10.70;;;4.20;;
74967;SDS011;63523;51.880;12.630;2024-02-28T11:52:59;9.67;;;3.97;;
74967;SDS011;63523;51.880;12.630;2024-02-28T11:55:26;10.68;;;3.92;;
74967;SDS011;63523;51.880;12.630;2024-02-28T11:57:52;10.23;;;4.20;;
74967;SDS011;63523;51.880;12.630;2024-02-28T12:00:18;10.97;;;4.27;;
74967;SDS011;63523;51.880;12.630;2024-02-28T12:02:43;10.40;;;4.18;;
74967;SDS011;63523;51.880;12.630;2024-02-28T12:05:08;12.47;;;4.40;;
74967;SDS011;63523;51.880;12.630;2024-02-28T12:07:34;14.43;;;4.60;;
74967;SDS011;63523;51.880;12.630;2024-02-28T12:10:00;11.93;;;4.57;;
74967;SDS011;63523;51.880;12.630;2024-02-28T12:12:27;11.63;;;4.30;;
74967;SDS011;63523;51.880;12.630;2024-02-28T12:14:52;12.30;;;4.95;;
74967;SDS011;63523;51.880;12.630;2024-02-28T12:17:18;11.27;;;4.40;;
74967;SDS011;63523;51.880;12.630;2024-02-28T12:19:43;12.73;;;4.83;;
74967;SDS011;63523;51.880;12.630;2024-02-28T12:22:09;12.77;;;4.93;;
74967;SDS011;63523;51.880;12.630;2024-02-28T12:24:35;11.20;;;5.00;;
74967;SDS011;63523;51.880;12.630;2024-02-28T12:27:01;13.45;;;5.60;;
74967;SDS011;63523;51.880;12.630;2024-02-28T12:29:26;11.70;;;4.80;;
74967;SDS011;63523;51.880;12.630;2024-02-28T12:31:51;11.00;;;4.87;;
74967;SDS011;63523;51.880;12.630;2024-02-28T12:34:16;13.93;;;5.33;;
74967;SDS011;63523;51.880;12.630;2024-02-28T12:36:42;12.90;;;5.70;;
74967;SDS011;63523;51.880;12.630;2024-02-28T12:39:07;13.15;;;5.53;;
74967;SDS011;63523;51.880;12.630;2024-02-28T12:41:36;13.93;;;5.87;;
74967;SDS011;63523;51.880;12.630;2024-02-28T12:44:03;13.45;;;5.00;;
74967;SDS011;63523;51.880;12.630;2024-02-28T12:46:28;12.45;;;5.20;;
74967;SDS011;63523;51.880;12.630;2024-02-28T12:48:54;10.80;;;5.00;;
74967;SDS011;63523;51.880;12.630;2024-02-28T12:54:10;13.68;;;5.57;;
74967;SDS011;63523;51.880;12.630;2024-02-28T12:56:38;13.55;;;5.78;;
74967;SDS011;63523;51.880;12.630;2024-02-28T12:59:04;14.23;;;6.17;;
74967;SDS011;63523;51.880;12.630;2024-02-28T13:01:32;13.27;;;6.47;;
74967;SDS011;63523;51.880;12.630;2024-02-28T13:03:57;15.90;;;6.20;;
74967;SDS011;63523;51.880;12.630;2024-02-28T13:06:23;15.00;;;6.13;;
74967;SDS011;63523;51.880;12.630;2024-02-28T13:08:48;13.73;;;5.93;;
74967;SDS011;63523;51.880;12.630;2024-02-28T13:11:20;15.32;;;5.72;;
74967;SDS011;63523;51.880;12.630;2024-02-28T13:13:49;13.93;;;6.38;;
74967;SDS011;63523;51.880;12.630;2024-02-28T13:16:16;15.10;;;6.33;;
74967;SDS011;63523;51.880;12.630;2024-02-28T13:18:46;13.85;;;5.97;;
74967;SDS011;63523;51.880;12.630;2024-02-28T13:21:11;15.27;;;5.70;;
74967;SDS011;63523;51.880;12.630;2024-02-28T13:23:37;12.95;;;5.47;;
74967;SDS011;63523;51.880;12.630;2024-02-28T13:26:06;14.77;;;5.70;;
74967;SDS011;63523;51.880;12.630;2024-02-28T13:28:32;15.60;;;6.38;;
74967;SDS011;63523;51.880;12.630;2024-02-28T13:31:01;15.52;;;6.68;;
74967;SDS011;63523;51.880;12.630;2024-02-28T13:33:27;13.33;;;5.83;;
74967;SDS011;63523;51.880;12.630;2024-02-28T13:35:53;12.65;;;5.75;;
74967;SDS011;63523;51.880;12.630;2024-02-28T13:38:19;18.33;;;6.63;;
74967;SDS011;63523;51.880;12.630;2024-02-28T13:40:48;20.03;;;7.77;;
74967;SDS011;63523;51.880;12.630;2024-02-28T13:43:14;18.10;;;7.57;;
74967;SDS011;63523;51.880;12.630;2024-02-28T13:45:41;14.32;;;6.05;;
74967;SDS011;63523;51.880;12.630;2024-02-28T13:48:15;13.25;;;5.72;;
74967;SDS011;63523;51.880;12.630;2024-02-28T13:50:42;12.63;;;4.87;;
74967;SDS011;63523;51.880;12.630;2024-02-28T13:53:07;13.77;;;5.95;;
74967;SDS011;63523;51.880;12.630;2024-02-28T13:55:33;11.17;;;5.20;;
74967;SDS011;63523;51.880;12.630;2024-02-28T13:57:58;12.33;;;5.67;;
74967;SDS011;63523;51.880;12.630;2024-02-28T14:00:23;13.97;;;5.83;;
74967;SDS011;63523;51.880;12.630;2024-02-28T14:02:48;11.37;;;5.00;;
74967;SDS011;63523;51.880;12.630;2024-02-28T14:05:14;12.47;;;5.63;;
74967;SDS011;63523;51.880;12.630;2024-02-28T14:07:39;12.07;;;5.20;;
74967;SDS011;63523;51.880;12.630;2024-02-28T14:10:05;15.40;;;5.33;;
74967;SDS011;63523;51.880;12.630;2024-02-28T14:12:30;11.00;;;4.80;;
74967;SDS011;63523;51.880;12.630;2024-02-28T14:14:55;12.23;;;5.10;;
74967;SDS011;63523;51.880;12.630;2024-02-28T14:17:21;11.27;;;4.93;;